Time;durP1;ratioP1;P1;durP2;ratioP2;P2;SDS_P1;SDS_P2;PMS_P1;PMS_P2;Temp;Humidity;BMP_temperature;BMP_pressure;BME280_temperature;BME280_humidity;BME280_pressure;Samples;Min_cycle;Max_cycle;Signal;HPM_P1;HPM_P2
2022/10/09 00:02:24;;;;;;;41.95;27.83;;;;;;;18.53;54.17;94138.72;4986981;28;20030;-87
2022/10/09 00:04:50;;;;;;;41.20;28.27;;;;;;;18.53;54.06;94146.16;4984514;28;20083;-87
2022/10/09 00:07:15;;;;;;;37.97;27.40;;;;;;;18.53;53.75;94144.19;4990195;28;20503;-87
2022/10/09 00:09:40;;;;;;;38.35;28.08;;;;;;;18.52;54.31;94148.16;4984064;28;20495;-88
2022/10/09 00:12:06;;;;;;;34.25;26.58;;;;;;;18.53;54.41;94151.66;4970476;28;20042;-87
2022/10/09 00:14:31;;;;;;;37.10;26.48;;;;;;;18.53;54.25;94154.38;4983260;28;20237;-87
2022/10/09 00:16:57;;;;;;;37.85;26.75;;;;;;;18.52;54.25;94150.91;4990522;28;20038;-87
2022/10/09 00:19:22;;;;;;;41.60;27.73;;;;;;;18.54;54.39;94150.41;4989260;28;20041;-87
2022/10/09 00:21:48;;;;;;;36.03;26.17;;;;;;;18.52;53.95;94144.69;5010061;28;20025;-87
2022/10/09 00:24:13;;;;;;;38.20;27.20;;;;;;;18.52;54.12;94150.91;5015453;28;20041;-87
2022/10/09 00:26:38;;;;;;;34.38;25.35;;;;;;;18.53;54.24;94143.44;5031645;28;20032;-88
2022/10/09 00:29:04;;;;;;;36.22;26.58;;;;;;;18.51;54.17;94135.72;5022973;28;20036;-87
2022/10/09 00:31:30;;;;;;;35.65;25.90;;;;;;;18.50;54.19;94145.91;4995153;28;20499;-87
2022/10/09 00:33:56;;;;;;;36.83;27.52;;;;;;;18.51;54.28;94143.94;5028857;28;20033;-87
2022/10/09 00:36:22;;;;;;;38.72;26.83;;;;;;;18.51;54.13;94143.94;5030226;28;20759;-87
2022/10/09 00:38:48;;;;;;;39.05;26.42;;;;;;;18.50;53.99;94145.91;5011241;28;20045;-87
2022/10/09 00:41:15;;;;;;;39.45;26.70;;;;;;;18.50;54.45;94145.16;4993755;28;20049;-87
2022/10/09 00:43:45;;;;;;;37.13;25.58;;;;;;;18.50;54.27;94140.44;4978776;28;20125;-87
2022/10/09 00:46:15;;;;;;;40.40;26.52;;;;;;;18.50;54.00;94139.69;5041543;28;20061;-87
2022/10/09 00:48:41;;;;;;;37.83;25.48;;;;;;;18.50;54.55;94143.19;5025722;28;20029;-87
2022/10/09 00:51:06;;;;;;;36.83;27.20;;;;;;;18.50;53.90;94139.69;5010229;28;20033;-88
2022/10/09 00:53:32;;;;;;;35.85;25.48;;;;;;;18.49;54.15;94138.19;5011481;28;20498;-87
2022/10/09 00:55:57;;;;;;;37.20;26.25;;;;;;;18.49;53.80;94143.66;4994441;28;20038;-87
2022/10/09 00:58:23;;;;;;;36.20;27.23;;;;;;;18.49;54.33;94144.41;5010457;28;20049;-88
2022/10/09 01:00:48;;;;;;;39.08;25.98;;;;;;;18.49;53.92;94132.72;4994561;28;20037;-87
2022/10/09 01:03:13;;;;;;;36.60;26.05;;;;;;;18.49;53.82;94136.19;4994601;28;20034;-87
2022/10/09 01:06:05;;;;;;;40.55;27.20;;;;;;;18.48;54.07;94133.97;5014324;28;20091;-87
2022/10/09 01:08:56;;;;;;;36.33;25.33;;;;;;;18.48;54.00;94131.22;5010229;28;20065;-87
2022/10/09 01:11:36;;;;;;;38.37;26.50;;;;;;;18.48;53.83;94134.72;4994012;28;20053;-87
2022/10/09 01:14:08;;;;;;;37.15;25.88;;;;;;;18.50;53.69;94128.75;5001394;28;20274;-87
2022/10/09 01:16:37;;;;;;;39.00;26.40;;;;;;;18.48;53.56;94121.00;5041828;28;20033;-87
2022/10/09 01:19:15;;;;;;;36.67;25.52;;;;;;;18.48;53.95;94126.50;5026970;28;20178;-87
2022/10/09 01:21:45;;;;;;;35.92;24.80;;;;;;;18.46;54.05;94123.50;5029889;28;20036;-87
2022/10/09 01:24:32;;;;;;;36.75;23.95;;;;;;;18.47;54.04;94122.25;5013601;28;20095;-87
2022/10/09 01:27:07;;;;;;;31.45;23.52;;;;;;;18.47;53.62;94125.00;5016364;28;20033;-86
2022/10/09 01:29:36;;;;;;;35.50;25.15;;;;;;;18.48;54.21;94123.00;5029923;28;20095;-86
2022/10/09 01:32:02;;;;;;;34.17;25.35;;;;;;;18.46;53.95;94120.75;5013557;28;20090;-85
2022/10/09 01:34:27;;;;;;;34.53;24.15;;;;;;;18.47;53.43;94107.81;5011738;28;20041;-85
2022/10/09 01:36:53;;;;;;;36.03;24.95;;;;;;;18.47;53.42;94122.25;5013543;28;20045;-85
2022/10/09 01:39:20;;;;;;;33.70;24.70;;;;;;;18.47;53.64;94118.78;5012798;28;20037;-85
2022/10/09 01:41:46;;;;;;;35.65;25.05;;;;;;;18.46;53.48;94115.28;5013147;28;20533;-86
2022/10/09 01:44:28;;;;;;;36.78;25.08;;;;;;;18.46;53.66;94117.28;5012863;28;20037;-86
2022/10/09 01:46:53;;;;;;;33.38;24.52;;;;;;;18.45;53.78;94124.75;5010292;28;20083;-85
2022/10/09 01:49:42;;;;;;;35.03;24.13;;;;;;;18.46;53.63;94117.28;5016610;28;20044;-85
2022/10/09 01:52:14;;;;;;;37.15;26.67;;;;;;;18.45;53.69;94115.78;5029171;28;20045;-85
2022/10/09 01:54:52;;;;;;;34.05;23.67;;;;;;;18.46;53.50;94115.28;5029758;28;20033;-85
2022/10/09 01:57:26;;;;;;;29.35;23.90;;;;;;;18.47;53.43;94124.25;5011938;28;20036;-85
2022/10/09 01:59:52;;;;;;;32.13;22.55;;;;;;;18.45;53.51;94121.25;5013980;28;20520;-85
2022/10/09 02:02:17;;;;;;;37.15;24.92;;;;;;;18.45;53.60;94124.00;5027882;28;20037;-85
2022/10/09 02:04:43;;;;;;;34.75;24.23;;;;;;;18.44;53.16;94117.75;5006898;28;20057;-85
2022/10/09 02:07:08;;;;;;;36.22;24.75;;;;;;;18.44;53.55;94111.53;4992780;28;20048;-85
2022/10/09 02:09:34;;;;;;;35.17;25.15;;;;;;;18.44;53.34;94111.53;5011570;28;20314;-85
2022/10/09 02:12:01;;;;;;;34.25;25.08;;;;;;;18.43;53.45;94118.25;5012765;28;20053;-85
2022/10/09 02:14:26;;;;;;;32.00;23.88;;;;;;;18.44;53.20;94117.75;5012829;28;20574;-86
2022/10/09 02:17:00;;;;;;;30.88;23.17;;;;;;;18.44;53.53;94115.03;5013216;28;20088;-85
2022/10/09 02:19:36;;;;;;;32.63;23.10;;;;;;;18.43;53.28;94119.00;5026728;28;20029;-85
2022/10/09 02:22:29;;;;;;;31.60;23.38;;;;;;;18.43;53.70;94112.78;5004956;28;20095;-86
2022/10/09 02:24:56;;;;;;;32.55;22.70;;;;;;;18.45;53.59;94118.50;5011032;28;20445;-85
2022/10/09 02:27:21;;;;;;;34.60;24.10;;;;;;;18.44;53.28;94114.28;5009317;28;20069;-86
2022/10/09 02:29:47;;;;;;;32.15;23.98;;;;;;;18.44;53.58;94120.50;5012459;28;20558;-85
2022/10/09 02:32:12;;;;;;;31.77;23.15;;;;;;;18.43;53.45;94113.53;5012578;28;20048;-85
2022/10/09 02:34:38;;;;;;;31.13;24.17;;;;;;;18.42;53.40;94112.03;5018107;28;20042;-85
2022/10/09 02:37:03;;;;;;;32.83;23.35;;;;;;;18.43;53.68;94112.78;5009068;28;20029;-85
2022/10/09 02:39:28;;;;;;;31.27;23.63;;;;;;;18.42;53.48;94114.78;5026055;28;20037;-85
2022/10/09 02:41:54;;;;;;;33.80;23.80;;;;;;;18.43;52.93;94124.47;5029174;28;20033;-85
2022/10/09 02:44:19;;;;;;;30.23;22.27;;;;;;;18.44;52.98;94125.97;4995424;28;20049;-85
2022/10/09 02:46:44;;;;;;;29.55;22.88;;;;;;;18.43;53.11;94110.03;5012479;28;20033;-86
2022/10/09 02:49:10;;;;;;;29.08;22.95;;;;;;;18.44;53.37;94108.81;4999995;28;20486;-85
2022/10/09 02:51:35;;;;;;;29.85;23.05;;;;;;;18.42;53.41;94122.22;5009354;28;20045;-85
2022/10/09 02:54:02;;;;;;;31.70;24.25;;;;;;;18.43;53.15;94116.28;5009882;28;20092;-85
2022/10/09 02:56:27;;;;;;;29.90;21.23;;;;;;;18.42;53.26;94119.50;4992585;28;20555;-86
2022/10/09 02:58:53;;;;;;;32.92;23.17;;;;;;;18.41;52.85;94124.22;5022032;28;20041;-84
2022/10/09 03:01:18;;;;;;;32.75;22.58;;;;;;;18.42;52.88;94125.72;4995581;28;20466;-85
2022/10/09 03:03:43;;;;;;;29.90;22.65;;;;;;;18.42;53.21;94117.50;5008477;28;20121;-85
2022/10/09 03:06:11;;;;;;;32.22;23.08;;;;;;;18.42;53.44;94122.22;4992308;28;20555;-85
2022/10/09 03:08:37;;;;;;;30.45;22.88;;;;;;;18.42;52.83;94124.97;5006804;28;20057;-85
2022/10/09 03:11:03;;;;;;;33.35;23.63;;;;;;;18.41;53.11;94124.22;5014702;28;20562;-85
2022/10/09 03:13:28;;;;;;;29.70;23.08;;;;;;;18.41;53.49;94115.25;5032551;28;20068;-85
2022/10/09 03:15:54;;;;;;;27.08;21.52;;;;;;;18.40;53.43;94130.94;5020125;28;20041;-85
2022/10/09 03:18:19;;;;;;;27.98;22.23;;;;;;;18.41;52.96;94123.47;5012343;28;20091;-85
2022/10/09 03:20:44;;;;;;;28.48;21.50;;;;;;;18.40;52.94;94125.47;5014127;28;20037;-85
2022/10/09 03:23:10;;;;;;;25.67;21.52;;;;;;;18.42;53.04;94128.47;5013172;28;20611;-85
2022/10/09 03:25:35;;;;;;;30.25;22.52;;;;;;;18.40;53.10;94125.47;5020488;28;20281;-85
2022/10/09 03:28:01;;;;;;;31.63;22.48;;;;;;;18.41;52.94;94134.44;4996451;28;20041;-85
2022/10/09 03:30:26;;;;;;;33.10;23.23;;;;;;;18.39;53.30;94131.47;5020963;28;20041;-86
2022/10/09 03:32:53;;;;;;;26.13;20.80;;;;;;;18.38;53.02;94121.75;4998872;28;20033;-85
2022/10/09 03:35:18;;;;;;;28.05;22.15;;;;;;;18.40;53.10;94130.22;5021224;28;20041;-85
2022/10/09 03:37:44;;;;;;;30.98;23.45;;;;;;;18.40;53.14;94125.47;5012788;28;20026;-85
2022/10/09 03:40:09;;;;;;;32.85;23.20;;;;;;;18.40;52.77;94133.69;5019694;28;20044;-85
2022/10/09 03:42:34;;;;;;;30.52;22.60;;;;;;;18.40;53.04;94130.22;5015455;28;20434;-85
2022/10/09 03:45:03;;;;;;;29.90;22.38;;;;;;;18.41;52.94;94128.94;4998413;28;20040;-85
2022/10/09 03:47:29;;;;;;;28.35;23.25;;;;;;;18.41;52.93;94139.91;5013198;28;20415;-86
2022/10/09 03:49:54;;;;;;;34.25;23.40;;;;;;;18.39;53.17;94137.69;5012263;28;20472;-85
2022/10/09 03:52:20;;;;;;;31.38;22.85;;;;;;;18.39;53.09;94134.19;4994932;28;20029;-85
2022/10/09 03:54:45;;;;;;;27.98;22.45;;;;;;;18.38;53.33;94144.41;4996354;28;20048;-85
2022/10/09 03:57:11;;;;;;;34.55;22.45;;;;;;;18.40;53.08;94141.88;4979147;28;20364;-85
2022/10/09 03:59:36;;;;;;;32.35;22.40;;;;;;;18.39;52.68;94145.16;5031005;28;20151;-86
2022/10/09 04:02:01;;;;;;;28.80;21.58;;;;;;;18.41;53.03;94148.88;5012484;28;20409;-85
2022/10/09 04:04:27;;;;;;;32.75;23.60;;;;;;;18.40;52.92;94141.16;5021134;28;20056;-85
2022/10/09 04:06:52;;;;;;;31.25;22.80;;;;;;;18.38;52.98;94140.91;5015619;28;20037;-85
2022/10/09 04:09:17;;;;;;;29.05;21.67;;;;;;;18.39;53.04;94137.69;5014308;28;20040;-85
2022/10/09 04:11:43;;;;;;;29.48;21.67;;;;;;;18.38;53.12;94140.91;5025671;28;20107;-85
2022/10/09 04:14:09;;;;;;;31.38;22.48;;;;;;;18.37;52.97;94137.44;5030978;28;20516;-85
2022/10/09 04:16:35;;;;;;;29.58;22.77;;;;;;;18.38;52.92;94149.88;5014986;28;20040;-85
2022/10/09 04:19:00;;;;;;;30.13;21.85;;;;;;;18.36;52.72;94144.13;5014617;28;20441;-85
2022/10/09 04:21:25;;;;;;;30.08;22.48;;;;;;;18.35;52.99;94142.63;5020118;28;20304;-85
2022/10/09 04:23:51;;;;;;;28.45;21.98;;;;;;;18.37;52.65;94144.88;5014825;28;20048;-85
2022/10/09 04:26:16;;;;;;;27.77;21.83;;;;;;;18.38;52.73;94149.13;5012730;28;20399;-85
2022/10/09 04:28:42;;;;;;;29.42;21.17;;;;;;;18.38;52.86;94149.13;5031244;28;20029;-85
2022/10/09 04:31:07;;;;;;;27.00;20.50;;;;;;;18.36;53.30;94148.88;5029667;28;20052;-85
2022/10/09 04:33:33;;;;;;;27.73;21.73;;;;;;;18.35;52.65;94137.16;5008556;28;20034;-85
2022/10/09 04:35:58;;;;;;;26.55;20.70;;;;;;;18.37;52.73;94153.09;5019420;28;20495;-85
2022/10/09 04:38:24;;;;;;;31.25;20.52;;;;;;;18.37;52.69;94145.63;5010647;28;20042;-85
2022/10/09 04:40:59;;;;;;;26.08;20.52;;;;;;;18.36;52.59;94144.13;4994481;28;20037;-85
2022/10/09 04:43:24;;;;;;;27.63;21.20;;;;;;;18.38;52.83;94149.13;5026663;28;20065;-86
2022/10/09 04:45:50;;;;;;;28.63;22.15;;;;;;;18.35;53.11;94148.13;5020898;28;20041;-85
2022/10/09 04:48:15;;;;;;;29.17;20.73;;;;;;;18.34;52.75;94146.63;5013565;28;20048;-85
2022/10/09 04:50:40;;;;;;;30.92;20.60;;;;;;;18.34;52.57;94151.34;5030694;28;20520;-85
2022/10/09 04:53:08;;;;;;;27.38;20.63;;;;;;;18.36;52.66;94149.63;5013600;28;20070;-85
2022/10/09 04:55:40;;;;;;;27.30;20.95;;;;;;;18.36;52.75;94144.13;5030839;28;20037;-85
2022/10/09 04:58:06;;;;;;;29.50;22.63;;;;;;;18.36;52.78;94140.66;5013355;28;20064;-85
2022/10/09 05:00:32;;;;;;;26.55;20.08;;;;;;;18.37;52.37;94139.41;5013999;28;20450;-85
2022/10/09 05:02:58;;;;;;;26.33;20.58;;;;;;;18.37;52.24;94142.16;5029888;28;20033;-85
2022/10/09 05:05:23;;;;;;;31.70;21.50;;;;;;;18.35;52.98;94144.63;4994958;28;20566;-85
2022/10/09 05:07:49;;;;;;;27.88;21.27;;;;;;;18.35;52.81;94148.13;4999249;28;20049;-85
2022/10/09 05:10:14;;;;;;;26.05;20.45;;;;;;;18.36;53.07;94146.13;5012604;28;20391;-85
2022/10/09 05:12:40;;;;;;;28.17;21.30;;;;;;;18.37;52.75;94142.91;5029911;28;20029;-85
2022/10/09 05:15:05;;;;;;;24.75;19.83;;;;;;;18.36;53.03;94140.66;5012607;28;20099;-85
2022/10/09 05:17:31;;;;;;;25.00;20.15;;;;;;;18.34;52.53;94145.88;5025777;28;20491;-85
2022/10/09 05:19:56;;;;;;;27.15;20.58;;;;;;;18.35;52.92;94142.63;4994696;28;20079;-85
2022/10/09 05:22:22;;;;;;;28.08;22.35;;;;;;;18.34;52.67;94146.63;4997653;28;20037;-85
2022/10/09 05:24:47;;;;;;;29.17;21.67;;;;;;;18.33;52.98;94147.09;5030177;28;20095;-85
2022/10/09 05:27:12;;;;;;;27.00;21.10;;;;;;;18.36;52.45;94143.38;5012690;28;20048;-85
2022/10/09 05:29:38;;;;;;;34.30;20.92;;;;;;;18.35;52.53;94144.63;5030196;28;20044;-85
2022/10/09 05:32:03;;;;;;;24.85;19.77;;;;;;;18.35;52.63;94147.38;4999696;28;20045;-85
2022/10/09 05:34:29;;;;;;;32.03;20.88;;;;;;;18.34;52.81;94143.88;5006535;28;20106;-85
2022/10/09 05:36:54;;;;;;;26.77;20.35;;;;;;;18.35;52.72;94145.38;5014726;28;20080;-85
2022/10/09 05:39:19;;;;;;;29.20;21.70;;;;;;;18.35;52.57;94156.31;4977218;28;20048;-85
2022/10/09 05:41:45;;;;;;;29.50;21.45;;;;;;;18.37;52.05;94161.31;5008143;28;20501;-85
2022/10/09 05:44:10;;;;;;;26.65;20.17;;;;;;;18.38;52.25;94160.06;5011173;28;20529;-85
2022/10/09 05:46:36;;;;;;;27.75;21.00;;;;;;;18.36;52.72;94148.88;4976455;28;20041;-85
2022/10/09 05:49:06;;;;;;;30.98;21.63;;;;;;;18.37;52.39;94150.38;4993702;28;20049;-85
2022/10/09 05:51:33;;;;;;;28.67;21.57;;;;;;;18.38;52.75;94160.06;5010484;28;20034;-85
2022/10/09 05:53:58;;;;;;;25.73;19.75;;;;;;;18.36;52.33;94159.81;4974315;28;20049;-85
2022/10/09 05:56:31;;;;;;;24.65;20.58;;;;;;;18.36;52.79;94162.56;4983840;28;20045;-85
2022/10/09 05:58:59;;;;;;;25.13;19.45;;;;;;;18.36;52.37;94160.56;4969386;28;20042;-85
2022/10/09 06:01:30;;;;;;;32.17;20.65;;;;;;;18.37;52.39;94173.00;4984658;28;20133;-85
2022/10/09 06:03:57;;;;;;;27.55;20.02;;;;;;;18.38;52.35;94171.03;4971800;28;20042;-85
2022/10/09 06:06:23;;;;;;;27.52;21.00;;;;;;;18.39;52.45;94175.25;4977753;28;20093;-85
2022/10/09 06:08:49;;;;;;;30.60;21.73;;;;;;;18.40;51.88;94179.50;4966133;28;20134;-85
2022/10/09 06:11:21;;;;;;;28.05;21.02;;;;;;;18.41;52.27;94173.50;4958181;28;20108;-85
2022/10/09 06:13:47;;;;;;;29.70;20.90;;;;;;;18.43;52.44;94179.22;4980337;28;20073;-85
2022/10/09 06:16:13;;;;;;;27.65;19.98;;;;;;;18.44;52.19;94174.50;4952204;28;20068;-85
2022/10/09 06:18:39;;;;;;;26.88;21.00;;;;;;;18.44;52.64;94180.72;4950353;28;20125;-85
2022/10/09 06:21:08;;;;;;;27.05;20.67;;;;;;;18.45;52.39;94174.00;4940031;28;20092;-85
2022/10/09 06:23:33;;;;;;;26.98;20.73;;;;;;;18.46;52.97;94169.28;4952789;28;20373;-85
2022/10/09 06:26:00;;;;;;;28.50;20.00;;;;;;;18.46;52.62;94181.00;4952905;28;20152;-85
2022/10/09 06:28:29;;;;;;;24.70;19.70;;;;;;;18.47;52.30;94179.75;4968370;28;20563;-85
2022/10/09 06:31:05;;;;;;;28.25;19.85;;;;;;;18.48;52.29;94183.25;5007815;28;20132;-85
2022/10/09 06:33:32;;;;;;;26.17;20.52;;;;;;;18.49;52.36;94188.22;5010167;28;20063;-85
2022/10/09 06:36:04;;;;;;;25.02;20.17;;;;;;;18.49;52.21;94188.22;5003742;28;20033;-85
2022/10/09 06:38:30;;;;;;;26.50;20.75;;;;;;;18.50;52.55;94186.97;4973456;28;20041;-85
2022/10/09 06:41:00;;;;;;;24.45;19.67;;;;;;;18.50;52.42;94186.97;4994566;28;20103;-85
2022/10/09 06:43:25;;;;;;;25.67;20.20;;;;;;;18.53;52.22;94181.75;4994724;28;20061;-85
2022/10/09 06:45:51;;;;;;;25.98;19.95;;;;;;;18.54;52.33;94177.78;5024114;28;20034;-85
2022/10/09 06:48:16;;;;;;;24.52;20.13;;;;;;;18.54;52.17;94194.97;5019275;28;20041;-85
2022/10/09 06:50:42;;;;;;;27.50;20.80;;;;;;;18.56;52.40;94197.22;5064408;28;20029;-85
2022/10/09 06:53:07;;;;;;;27.35;21.08;;;;;;;18.56;52.34;94192.47;4980125;28;20033;-86
2022/10/09 06:55:32;;;;;;;25.35;20.40;;;;;;;18.58;52.43;94200.97;5008542;28;20326;-85
2022/10/09 06:57:58;;;;;;;24.98;20.55;;;;;;;18.59;52.03;94198.97;5012914;28;20045;-86
2022/10/09 07:00:25;;;;;;;27.23;20.65;;;;;;;18.60;52.05;94203.22;5012325;28;20033;-85
2022/10/09 07:02:50;;;;;;;23.92;18.90;;;;;;;18.61;52.02;94207.47;5032557;28;20033;-85
2022/10/09 07:05:16;;;;;;;26.85;20.50;;;;;;;18.60;52.08;94209.47;5000832;28;20522;-85
2022/10/09 07:07:41;;;;;;;28.08;20.48;;;;;;;18.63;52.18;94202.97;5013483;28;20328;-86
2022/10/09 07:10:07;;;;;;;28.38;20.98;;;;;;;18.64;51.99;94209.19;5048544;28;20033;-85
2022/10/09 07:12:34;;;;;;;25.83;20.25;;;;;;;18.64;51.93;94211.94;5018982;28;20684;-85
2022/10/09 07:15:00;;;;;;;26.05;20.38;;;;;;;18.66;51.84;94212.19;5036587;28;20029;-85
2022/10/09 07:17:25;;;;;;;25.27;19.35;;;;;;;18.67;51.73;94205.47;4995878;28;20463;-85
2022/10/09 07:19:51;;;;;;;24.40;19.13;;;;;;;18.68;51.89;94209.72;5012975;28;20091;-86
2022/10/09 07:22:16;;;;;;;27.02;20.35;;;;;;;18.70;52.04;94207.97;5025296;28;20029;-85
2022/10/09 07:24:41;;;;;;;26.42;20.15;;;;;;;18.70;51.93;94205.25;4995900;28;20135;-85
2022/10/09 07:27:07;;;;;;;23.98;19.85;;;;;;;18.71;51.68;94206.75;5015108;28;20033;-85
2022/10/09 07:29:32;;;;;;;26.27;19.77;;;;;;;18.70;52.07;94204.50;5048217;28;20036;-86
2022/10/09 07:31:58;;;;;;;24.38;18.65;;;;;;;18.72;52.03;94204.75;5031759;28;20038;-86
2022/10/09 07:34:23;;;;;;;28.90;20.27;;;;;;;18.72;52.14;94204.75;5021282;28;20082;-85
2022/10/09 07:36:49;;;;;;;24.08;19.45;;;;;;;18.72;51.70;94207.50;5026439;28;20041;-85
2022/10/09 07:39:15;;;;;;;26.05;19.75;;;;;;;18.75;51.95;94203.78;4995791;28;20037;-85
2022/10/09 07:41:40;;;;;;;27.85;20.70;;;;;;;18.76;51.90;94202.53;5007091;28;20040;-85
2022/10/09 07:44:06;;;;;;;29.20;19.20;;;;;;;18.77;51.67;94212.25;4998436;28;20030;-86
2022/10/09 07:46:31;;;;;;;27.10;19.90;;;;;;;18.78;51.83;94214.50;5008239;28;20041;-85
2022/10/09 07:48:57;;;;;;;27.95;20.50;;;;;;;18.75;51.78;94212.75;5031473;28;20071;-86
2022/10/09 07:51:24;;;;;;;24.92;19.17;;;;;;;18.80;51.63;94216.75;5014670;28;20045;-85
2022/10/09 07:53:49;;;;;;;23.10;17.95;;;;;;;18.80;51.85;94216.75;5030902;28;20033;-85
2022/10/09 07:56:16;;;;;;;26.02;19.13;;;;;;;18.79;51.61;94207.78;5014123;28;20409;-85
2022/10/09 07:58:42;;;;;;;24.85;19.50;;;;;;;18.79;51.72;94213.25;5031646;28;20079;-85
2022/10/09 08:01:07;;;;;;;24.55;19.92;;;;;;;18.79;51.85;94207.78;5014673;28;20035;-85
2022/10/09 08:03:33;;;;;;;24.98;20.17;;;;;;;18.80;51.94;94212.00;5029267;28;20438;-85
2022/10/09 08:05:58;;;;;;;26.08;20.38;;;;;;;18.82;51.62;94212.28;4995579;28;20475;-85
2022/10/09 08:08:24;;;;;;;24.23;19.10;;;;;;;18.83;51.72;94213.03;5020749;28;20037;-85
2022/10/09 08:10:49;;;;;;;26.58;19.38;;;;;;;18.81;51.73;94212.75;5015230;28;20391;-85
2022/10/09 08:13:15;;;;;;;24.55;19.73;;;;;;;18.81;51.69;94210.78;5029603;28;20033;-85
2022/10/09 08:15:41;;;;;;;25.67;19.17;;;;;;;18.84;51.79;94211.75;4995228;28;20928;-85
2022/10/09 08:18:07;;;;;;;25.77;19.00;;;;;;;18.81;51.73;94213.50;5019078;28;20407;-85
2022/10/09 08:20:32;;;;;;;28.98;19.35;;;;;;;18.82;51.74;94206.78;4995666;28;20036;-86
2022/10/09 08:22:58;;;;;;;23.90;18.75;;;;;;;18.83;51.67;94205.56;4995727;28;20038;-85
2022/10/09 08:25:23;;;;;;;23.30;18.67;;;;;;;18.84;51.71;94209.75;5014367;28;20040;-85
2022/10/09 08:27:51;;;;;;;21.52;18.00;;;;;;;18.84;51.59;94204.28;5014368;28;20048;-85
2022/10/09 08:30:17;;;;;;;23.58;18.85;;;;;;;18.83;51.52;94208.28;5014083;28;20033;-86
2022/10/09 08:32:42;;;;;;;22.58;18.90;;;;;;;18.83;51.92;94215.75;5014623;28;20051;-85
2022/10/09 08:35:07;;;;;;;24.13;19.17;;;;;;;18.83;51.86;94210.28;5012858;28;20040;-85
2022/10/09 08:37:33;;;;;;;24.30;18.70;;;;;;;18.82;51.86;94212.28;5007470;28;20098;-85
2022/10/09 08:39:58;;;;;;;22.98;18.10;;;;;;;18.85;51.80;94216.00;5030988;28;20036;-85
2022/10/09 08:42:30;;;;;;;23.20;17.88;;;;;;;18.84;51.81;94212.50;5013760;28;20053;-85
2022/10/09 08:44:55;;;;;;;25.02;19.10;;;;;;;18.86;51.83;94209.25;5015084;28;20033;-85
2022/10/09 08:47:26;;;;;;;23.60;18.67;;;;;;;18.89;51.37;94204.78;5021643;28;20092;-85
2022/10/09 08:50:09;;;;;;;23.80;18.92;;;;;;;18.86;51.51;94200.31;5031194;28;20033;-85
2022/10/09 08:52:54;;;;;;;25.83;18.80;;;;;;;18.84;51.85;94201.53;5036359;28;20065;-85
2022/10/09 08:55:40;;;;;;;26.65;18.60;;;;;;;18.85;51.69;94194.06;5028152;28;20045;-85
2022/10/09 08:58:08;;;;;;;26.83;18.90;;;;;;;18.89;51.62;94191.09;4996343;28;20512;-85
2022/10/09 09:00:44;;;;;;;22.73;19.05;;;;;;;18.86;51.80;94195.56;5005700;28;20043;-86
2022/10/09 09:03:34;;;;;;;25.38;19.67;;;;;;;18.84;51.71;94189.84;5014097;28;20056;-85
2022/10/09 09:06:11;;;;;;;23.13;16.95;;;;;;;18.86;51.80;94187.34;5030352;28;20048;-85
2022/10/09 09:08:46;;;;;;;25.40;19.38;;;;;;;18.84;51.74;94190.59;5019334;28;20057;-85
2022/10/09 09:11:27;;;;;;;23.88;18.25;;;;;;;18.84;51.81;94201.53;5026606;28;20041;-85
2022/10/09 09:14:10;;;;;;;24.27;18.42;;;;;;;18.88;51.64;94192.34;5048942;28;20044;-85
2022/10/09 09:16:51;;;;;;;21.45;17.77;;;;;;;18.84;51.67;94198.81;5046065;28;20029;-85
2022/10/09 09:19:25;;;;;;;23.20;18.92;;;;;;;18.86;51.87;94203.03;5013514;28;20040;-85
2022/10/09 09:21:51;;;;;;;22.33;17.73;;;;;;;18.83;51.13;94202.81;5030358;28;20063;-85
2022/10/09 09:24:18;;;;;;;21.23;17.30;;;;;;;18.84;51.60;94198.06;5013030;28;20034;-85
2022/10/09 09:26:46;;;;;;;23.20;17.42;;;;;;;18.81;51.14;94193.59;5028851;28;20053;-86
2022/10/09 09:29:12;;;;;;;22.35;17.63;;;;;;;18.82;51.61;94190.34;5011278;28;20117;-85
2022/10/09 09:31:38;;;;;;;23.80;17.35;;;;;;;18.84;51.75;94179.63;5029103;28;20495;-85
2022/10/09 09:34:10;;;;;;;22.25;17.38;;;;;;;18.81;51.10;94183.38;4993752;28;20030;-85
2022/10/09 09:36:53;;;;;;;22.63;17.30;;;;;;;18.80;51.56;94179.13;5026427;28;20038;-85
2022/10/09 09:39:18;;;;;;;23.42;18.35;;;;;;;18.83;51.73;94182.88;5009818;28;20552;-85
2022/10/09 09:41:43;;;;;;;22.70;17.20;;;;;;;18.82;51.77;94186.88;5020536;28;20041;-86
2022/10/09 09:44:10;;;;;;;23.88;17.88;;;;;;;18.81;51.71;94186.13;4993269;28;20143;-85
2022/10/09 09:46:35;;;;;;;21.92;17.40;;;;;;;18.81;51.73;94182.63;4993665;28;20067;-85
2022/10/09 09:49:00;;;;;;;24.30;17.95;;;;;;;18.81;51.61;94182.63;5000426;28;20025;-86
2022/10/09 09:51:30;;;;;;;21.73;17.40;;;;;;;18.81;51.87;94179.88;4993693;28;20384;-85
2022/10/09 09:54:02;;;;;;;21.70;17.77;;;;;;;18.79;51.61;94174.91;5008920;28;20026;-85
2022/10/09 09:56:36;;;;;;;24.30;18.02;;;;;;;18.79;51.88;94180.38;5009822;28;20040;-85
2022/10/09 09:59:02;;;;;;;20.48;16.10;;;;;;;18.81;51.58;94174.41;5037909;28;20033;-88
2022/10/09 10:01:29;;;;;;;21.15;16.88;;;;;;;18.79;51.68;94172.16;5012864;28;20083;-87
2022/10/09 10:03:56;;;;;;;22.77;18.23;;;;;;;18.80;51.54;94178.41;5017603;28;20053;-87
2022/10/09 10:06:31;;;;;;;22.42;17.95;;;;;;;18.80;51.88;94172.91;5028807;28;20029;-87
2022/10/09 10:09:04;;;;;;;22.73;17.33;;;;;;;18.79;51.79;94169.44;5025701;28;20094;-87
2022/10/09 10:11:31;;;;;;;21.73;17.08;;;;;;;18.81;51.63;94158.72;5029638;28;20036;-87
2022/10/09 10:13:56;;;;;;;22.52;18.02;;;;;;;18.81;51.45;94163.47;5013012;28;20051;-87
2022/10/09 10:16:25;;;;;;;20.45;16.25;;;;;;;18.80;51.45;94151.00;5029197;28;20048;-88
2022/10/09 10:18:51;;;;;;;24.35;18.85;;;;;;;18.81;51.60;94157.97;5005976;28;20073;-87
2022/10/09 10:21:17;;;;;;;21.00;17.73;;;;;;;18.81;51.74;94150.50;5016868;28;20840;-87
2022/10/09 10:23:53;;;;;;;21.85;17.05;;;;;;;18.80;51.84;94153.75;5017086;28;20072;-87
2022/10/09 10:26:23;;;;;;;20.65;17.20;;;;;;;18.83;51.90;94147.28;5032831;28;20059;-87
2022/10/09 10:29:02;;;;;;;26.27;18.65;;;;;;;18.80;51.77;94153.75;5032976;28;20178;-87
2022/10/09 10:31:34;;;;;;;22.27;17.15;;;;;;;18.81;51.55;94147.03;5032770;28;20049;-87
2022/10/09 10:33:59;;;;;;;22.63;17.92;;;;;;;18.80;51.62;94149.00;5033747;28;20025;-88
2022/10/09 10:36:27;;;;;;;23.85;17.48;;;;;;;18.80;51.78;94140.78;5016009;28;20041;-87
2022/10/09 10:39:02;;;;;;;21.40;17.40;;;;;;;18.79;51.85;94138.53;5001514;28;20132;-88
2022/10/09 10:41:30;;;;;;;21.83;17.88;;;;;;;18.81;51.78;94141.53;4996775;28;20045;-88
2022/10/09 10:44:02;;;;;;;23.17;17.23;;;;;;;18.81;51.74;94138.81;5012711;28;20095;-87
2022/10/09 10:46:37;;;;;;;21.40;17.40;;;;;;;18.81;51.69;94136.81;5033241;28;20060;-88
2022/10/09 10:49:02;;;;;;;20.75;17.17;;;;;;;18.82;51.94;94134.81;5016102;28;20083;-87
2022/10/09 10:51:30;;;;;;;21.98;16.52;;;;;;;18.82;51.58;94135.56;4996098;28;20045;-88
2022/10/09 10:54:18;;;;;;;23.00;17.05;;;;;;;18.82;51.68;94126.59;5028916;28;20044;-87
2022/10/09 10:56:50;;;;;;;21.35;17.45;;;;;;;18.83;51.69;94122.63;5036543;28;20033;-87
2022/10/09 10:59:33;;;;;;;26.23;18.40;;;;;;;18.84;51.74;94121.34;5032356;28;20715;-87
2022/10/09 11:02:15;;;;;;;22.48;17.17;;;;;;;18.82;51.79;94127.34;5050135;28;20033;-87
2022/10/09 11:05:21;;;;;;;21.42;16.02;;;;;;;18.82;51.64;94115.66;5017713;28;20479;-87
2022/10/09 11:08:17;;;;;;;20.08;16.15;;;;;;;18.82;51.82;94113.66;5033523;28;20036;-87
2022/10/09 11:10:58;;;;;;;20.90;16.48;;;;;;;18.82;51.42;94104.69;5032206;28;20037;-87
2022/10/09 11:13:48;;;;;;;23.25;16.67;;;;;;;18.81;51.91;94108.66;5012991;28;20041;-87
2022/10/09 11:16:27;;;;;;;20.73;16.17;;;;;;;18.82;51.74;94093.72;5012700;28;20061;-87
2022/10/09 11:19:02;;;;;;;22.02;17.45;;;;;;;18.82;51.73;94086.25;5028444;28;20040;-87
2022/10/09 11:21:53;;;;;;;24.77;17.25;;;;;;;18.82;51.94;94093.72;5028725;28;20047;-88
2022/10/09 11:24:18;;;;;;;;;;;;;;;18.82;51.84;94091.00;5000809;28;20038;-87